Agia Marina — SX5375 — position and weather

sailwx.info

Track history (hours):
 
Tides and Currents Weather Stations Pressure Air Temp Water Temp Dewpoint Dewpoint Depression Visibility Wind Speed Wind Dir Waves Ship Positions

Agia Marina

Last reported at 2015-Jan-31 00:33 UTC. Time now 2015-Jan-31 00:46 UTC.
Position N 38°02' E 023°36'.

Length 59 m; draft 2.5 m.

Type: Cargo ship. MMSI: 237042500.

Date/timePositionNaut miles runAvg speedWind from/ knotsBaromVisibWave heightAir tempDewpointWater temp
2015-Jan-31 00:33N 38°02' E 023°36'0 0.0
2015-Jan-30 23:33N 38°02' E 023°36'0 0.0
2015-Jan-30 22:33N 38°02' E 023°36'0 0.0
2015-Jan-30 21:33N 38°02' E 023°36'0 0.0
2015-Jan-30 20:33N 38°02' E 023°36'0 0.0
2015-Jan-30 19:33N 38°02' E 023°36'0 0.0
2015-Jan-30 18:33N 38°02' E 023°36'0 0.0
2015-Jan-30 17:33N 38°02' E 023°36'0 0.0
2015-Jan-30 16:33N 38°02' E 023°36'0 0.0
2015-Jan-30 15:33N 38°02' E 023°36'0 0.0
2015-Jan-30 14:33N 38°02' E 023°36'0 0.0
2015-Jan-30 13:33N 38°02' E 023°36'0 0.0
2015-Jan-30 12:33N 38°02' E 023°36'0 0.0
2015-Jan-30 11:33N 38°02' E 023°36'0 0.0
2015-Jan-30 10:33N 38°02' E 023°36'0 0.0
2015-Jan-30 09:33N 38°02' E 023°36'0 0.0
2015-Jan-30 08:33N 38°02' E 023°36'0 0.0
2015-Jan-30 07:32N 38°02' E 023°36'0 0.0
2015-Jan-30 06:33N 38°02' E 023°36'0 0.0
2015-Jan-30 05:33N 38°02' E 023°36'0 0.0
2015-Jan-30 04:33N 38°02' E 023°36'0 0.0
2015-Jan-30 03:33N 38°02' E 023°36'0 0.0
2015-Jan-30 02:33N 38°02' E 023°36'0 0.0
2015-Jan-30 01:33N 38°02' E 023°36'0 0.0
2015-Jan-30 00:33N 38°02' E 023°36'0 0.0
2015-Jan-29 23:33N 38°02' E 023°36'0 0.0
2015-Jan-29 22:33N 38°02' E 023°36'0 0.0
2015-Jan-29 21:33N 38°02' E 023°36'0 0.0
2015-Jan-29 20:33N 38°02' E 023°36'0 0.0
2015-Jan-29 19:33N 38°02' E 023°36'0 0.0
2015-Jan-29 18:33N 38°02' E 023°36'0 0.0
2015-Jan-29 17:33N 38°02' E 023°36'0 0.0
2015-Jan-29 16:33N 38°02' E 023°36'0 0.0
2015-Jan-29 15:33N 38°02' E 023°36'0 0.0
2015-Jan-29 14:33N 38°02' E 023°36'0 0.0
2015-Jan-29 13:33N 38°02' E 023°36'0 0.0
2015-Jan-29 12:33N 38°02' E 023°36'0 0.0
2015-Jan-29 11:28N 38°02' E 023°36'1 1.6
2015-Jan-29 10:33N 38°01' E 023°34'6 5.5
2015-Jan-29 09:33N 37°55' E 023°34'6 6.3
2015-Jan-29 08:33N 37°50' E 023°31'7 0.6
2015-Jan-28 21:07N 37°44' E 023°25'4 6.1
2015-Jan-28 20:32N 37°40' E 023°26'7 7.2
2015-Jan-28 19:33N 37°38' E 023°35'8 7.7
2015-Jan-28 18:32N 37°35' E 023°44'16 7.7
2015-Jan-28 16:24N 37°29' E 024°03'50 1.0
2015-Jan-26 12:33N 37°05' E 024°59'7 6.8
2015-Jan-26 11:33N 37°10' E 025°04'7 6.9
2015-Jan-26 10:33N 37°15' E 025°10'7 6.8
2015-Jan-26 09:33N 37°20' E 025°15'7 6.9
2015-Jan-26 08:33N 37°27' E 025°18'2 1.8
2015-Jan-26 07:33N 37°28' E 025°20'0 0.0
2015-Jan-26 06:33N 37°28' E 025°20'0 0.0
2015-Jan-26 05:33N 37°28' E 025°20'2 1.5
2015-Jan-26 04:32N 37°26' E 025°19'0 0.1
2015-Jan-26 03:33N 37°26' E 025°19'0 0.0
2015-Jan-26 02:33N 37°26' E 025°19'0 0.0
2015-Jan-26 01:33N 37°26' E 025°19'0 0.0
2015-Jan-26 00:33N 37°26' E 025°19'0 0.0
2015-Jan-25 23:33N 37°26' E 025°19'0 0.1
2015-Jan-25 22:33N 37°27' E 025°19'0 0.0
2015-Jan-25 21:32N 37°27' E 025°19'0 0.0
2015-Jan-25 20:33N 37°27' E 025°19'0 0.0
2015-Jan-25 19:33N 37°27' E 025°19'0 0.0
2015-Jan-25 18:33N 37°27' E 025°19'5 4.7
2015-Jan-25 17:33N 37°31' E 025°20'6 6.4
2015-Jan-25 16:33N 37°32' E 025°28'6 5.9
2015-Jan-25 15:33N 37°32' E 025°36'6 5.6
2015-Jan-25 14:31N 37°32' E 025°43'6 6.1
2015-Jan-25 13:33N 37°32' E 025°51'  
2015-Jan-21 12:03N 37°10' E 026°44'  
Track history (hours):
 
Tides and Currents Weather Stations Pressure Air Temp Water Temp Dewpoint Dewpoint Depression Visibility Wind Speed Wind Dir Waves Ship Positions

Agia Marina

Last reported at 2015-Jan-31 00:33 UTC. Time now 2015-Jan-31 00:46 UTC.
Position N 38°02' E 023°36'.

Length 59 m; draft 2.5 m.

Type: Cargo ship. MMSI: 237042500.

Date/timePositionNaut miles runAvg speedWind from/ knotsBaromVisibWave heightAir tempDewpointWater temp
2015-Jan-31 00:33N 38°02' E 023°36'0 0.0
2015-Jan-30 23:33N 38°02' E 023°36'0 0.0
2015-Jan-30 22:33N 38°02' E 023°36'0 0.0
2015-Jan-30 21:33N 38°02' E 023°36'0 0.0
2015-Jan-30 20:33N 38°02' E 023°36'0 0.0
2015-Jan-30 19:33N 38°02' E 023°36'0 0.0
2015-Jan-30 18:33N 38°02' E 023°36'0 0.0
2015-Jan-30 17:33N 38°02' E 023°36'0 0.0
2015-Jan-30 16:33N 38°02' E 023°36'0 0.0
2015-Jan-30 15:33N 38°02' E 023°36'0 0.0
2015-Jan-30 14:33N 38°02' E 023°36'0 0.0
2015-Jan-30 13:33N 38°02' E 023°36'0 0.0
2015-Jan-30 12:33N 38°02' E 023°36'0 0.0
2015-Jan-30 11:33N 38°02' E 023°36'0 0.0
2015-Jan-30 10:33N 38°02' E 023°36'0 0.0
2015-Jan-30 09:33N 38°02' E 023°36'0 0.0
2015-Jan-30 08:33N 38°02' E 023°36'0 0.0
2015-Jan-30 07:32N 38°02' E 023°36'0 0.0
2015-Jan-30 06:33N 38°02' E 023°36'0 0.0
2015-Jan-30 05:33N 38°02' E 023°36'0 0.0
2015-Jan-30 04:33N 38°02' E 023°36'0 0.0
2015-Jan-30 03:33N 38°02' E 023°36'0 0.0
2015-Jan-30 02:33N 38°02' E 023°36'0 0.0
2015-Jan-30 01:33N 38°02' E 023°36'0 0.0
2015-Jan-30 00:33N 38°02' E 023°36'0 0.0
2015-Jan-29 23:33N 38°02' E 023°36'0 0.0
2015-Jan-29 22:33N 38°02' E 023°36'0 0.0
2015-Jan-29 21:33N 38°02' E 023°36'0 0.0
2015-Jan-29 20:33N 38°02' E 023°36'0 0.0
2015-Jan-29 19:33N 38°02' E 023°36'0 0.0
2015-Jan-29 18:33N 38°02' E 023°36'0 0.0
2015-Jan-29 17:33N 38°02' E 023°36'0 0.0
2015-Jan-29 16:33N 38°02' E 023°36'0 0.0
2015-Jan-29 15:33N 38°02' E 023°36'0 0.0
2015-Jan-29 14:33N 38°02' E 023°36'0 0.0
2015-Jan-29 13:33N 38°02' E 023°36'0 0.0
2015-Jan-29 12:33N 38°02' E 023°36'0 0.0
2015-Jan-29 11:28N 38°02' E 023°36'1 1.6
2015-Jan-29 10:33N 38°01' E 023°34'6 5.5
2015-Jan-29 09:33N 37°55' E 023°34'6 6.3
2015-Jan-29 08:33N 37°50' E 023°31'7 0.6
2015-Jan-28 21:07N 37°44' E 023°25'4 6.1
2015-Jan-28 20:32N 37°40' E 023°26'7 7.2
2015-Jan-28 19:33N 37°38' E 023°35'8 7.7
2015-Jan-28 18:32N 37°35' E 023°44'16 7.7
2015-Jan-28 16:24N 37°29' E 024°03'50 1.0
2015-Jan-26 12:33N 37°05' E 024°59'7 6.8
2015-Jan-26 11:33N 37°10' E 025°04'7 6.9
2015-Jan-26 10:33N 37°15' E 025°10'7 6.8
2015-Jan-26 09:33N 37°20' E 025°15'7 6.9
2015-Jan-26 08:33N 37°27' E 025°18'2 1.8
2015-Jan-26 07:33N 37°28' E 025°20'0 0.0
2015-Jan-26 06:33N 37°28' E 025°20'0 0.0
2015-Jan-26 05:33N 37°28' E 025°20'2 1.5
2015-Jan-26 04:32N 37°26' E 025°19'0 0.1
2015-Jan-26 03:33N 37°26' E 025°19'0 0.0
2015-Jan-26 02:33N 37°26' E 025°19'0 0.0
2015-Jan-26 01:33N 37°26' E 025°19'0 0.0
2015-Jan-26 00:33N 37°26' E 025°19'0 0.0
2015-Jan-25 23:33N 37°26' E 025°19'0 0.1
2015-Jan-25 22:33N 37°27' E 025°19'0 0.0
2015-Jan-25 21:32N 37°27' E 025°19'0 0.0
2015-Jan-25 20:33N 37°27' E 025°19'0 0.0
2015-Jan-25 19:33N 37°27' E 025°19'0 0.0
2015-Jan-25 18:33N 37°27' E 025°19'5 4.7
2015-Jan-25 17:33N 37°31' E 025°20'6 6.4
2015-Jan-25 16:33N 37°32' E 025°28'6 5.9
2015-Jan-25 15:33N 37°32' E 025°36'6 5.6
2015-Jan-25 14:31N 37°32' E 025°43'6 6.1
2015-Jan-25 13:33N 37°32' E 025°51'  
2015-Jan-21 12:03N 37°10' E 026°44'  

Dump ship's entire track history